sensor_id;sensor_type;location;lat;lon;timestamp;temperature;humidity
64062;DHT22;50308;47.438;-1.528;2023-02-11T00:00:39;7.20;77.30
64062;DHT22;50308;47.438;-1.528;2023-02-11T00:03:05;7.20;77.50
64062;DHT22;50308;47.438;-1.528;2023-02-11T00:05:31;7.10;77.40
64062;DHT22;50308;47.438;-1.528;2023-02-11T00:07:56;7.00;77.20
64062;DHT22;50308;47.438;-1.528;2023-02-11T00:10:22;7.00;77.40
64062;DHT22;50308;47.438;-1.528;2023-02-11T00:12:47;7.00;77.40
64062;DHT22;50308;47.438;-1.528;2023-02-11T00:15:13;7.00;77.50
64062;DHT22;50308;47.438;-1.528;2023-02-11T00:17:38;7.00;77.60
64062;DHT22;50308;47.438;-1.528;2023-02-11T00:20:04;7.00;77.30
64062;DHT22;50308;47.438;-1.528;2023-02-11T00:22:30;6.90;77.40
64062;DHT22;50308;47.438;-1.528;2023-02-11T00:24:55;6.80;77.10
64062;DHT22;50308;47.438;-1.528;2023-02-11T00:27:21;6.90;77.30
64062;DHT22;50308;47.438;-1.528;2023-02-11T00:29:47;6.80;77.50
64062;DHT22;50308;47.438;-1.528;2023-02-11T00:32:12;6.90;77.30
64062;DHT22;50308;47.438;-1.528;2023-02-11T00:34:38;6.90;77.30
64062;DHT22;50308;47.438;-1.528;2023-02-11T00:37:03;6.90;77.50
64062;DHT22;50308;47.438;-1.528;2023-02-11T00:39:29;6.90;77.70
64062;DHT22;50308;47.438;-1.528;2023-02-11T00:41:55;6.90;77.50
64062;DHT22;50308;47.438;-1.528;2023-02-11T00:44:21;6.90;77.40
64062;DHT22;50308;47.438;-1.528;2023-02-11T00:46:46;7.00;77.60
64062;DHT22;50308;47.438;-1.528;2023-02-11T00:49:12;7.00;77.60
64062;DHT22;50308;47.438;-1.528;2023-02-11T00:51:37;7.00;77.80
64062;DHT22;50308;47.438;-1.528;2023-02-11T00:54:03;7.00;78.10
64062;DHT22;50308;47.438;-1.528;2023-02-11T00:56:30;6.90;77.80
64062;DHT22;50308;47.438;-1.528;2023-02-11T00:58:55;6.90;78.40
64062;DHT22;50308;47.438;-1.528;2023-02-11T01:01:21;7.00;78.30
64062;DHT22;50308;47.438;-1.528;2023-02-11T01:03:47;7.00;78.00
64062;DHT22;50308;47.438;-1.528;2023-02-11T01:06:12;7.00;77.90
64062;DHT22;50308;47.438;-1.528;2023-02-11T01:08:38;7.00;78.10
64062;DHT22;50308;47.438;-1.528;2023-02-11T01:11:05;7.10;78.00
64062;DHT22;50308;47.438;-1.528;2023-02-11T01:13:31;7.10;78.00
64062;DHT22;50308;47.438;-1.528;2023-02-11T01:15:57;7.20;78.20
64062;DHT22;50308;47.438;-1.528;2023-02-11T01:18:23;7.20;78.00
64062;DHT22;50308;47.438;-1.528;2023-02-11T01:20:52;7.20;77.90
64062;DHT22;50308;47.438;-1.528;2023-02-11T01:23:18;7.20;77.90
64062;DHT22;50308;47.438;-1.528;2023-02-11T01:25:43;7.20;78.00
64062;DHT22;50308;47.438;-1.528;2023-02-11T01:28:25;7.20;78.00
64062;DHT22;50308;47.438;-1.528;2023-02-11T01:30:51;7.20;77.90
64062;DHT22;50308;47.438;-1.528;2023-02-11T01:33:17;7.30;77.90
64062;DHT22;50308;47.438;-1.528;2023-02-11T01:35:43;7.30;78.00
64062;DHT22;50308;47.438;-1.528;2023-02-11T01:38:19;7.30;77.90
64062;DHT22;50308;47.438;-1.528;2023-02-11T01:40:49;7.20;78.00
64062;DHT22;50308;47.438;-1.528;2023-02-11T01:43:14;7.20;78.40
64062;DHT22;50308;47.438;-1.528;2023-02-11T01:45:45;7.20;78.20
64062;DHT22;50308;47.438;-1.528;2023-02-11T01:48:15;7.20;77.80
64062;DHT22;50308;47.438;-1.528;2023-02-11T01:50:42;7.20;78.00
64062;DHT22;50308;47.438;-1.528;2023-02-11T01:53:09;7.20;77.90
64062;DHT22;50308;47.438;-1.528;2023-02-11T01:55:53;7.20;77.80
64062;DHT22;50308;47.438;-1.528;2023-02-11T01:58:38;7.10;78.30
64062;DHT22;50308;47.438;-1.528;2023-02-11T02:01:05;7.20;78.30
64062;DHT22;50308;47.438;-1.528;2023-02-11T02:03:31;7.20;78.00
64062;DHT22;50308;47.438;-1.528;2023-02-11T02:08:52;7.20;78.30
64062;DHT22;50308;47.438;-1.528;2023-02-11T02:11:19;7.20;78.10
64062;DHT22;50308;47.438;-1.528;2023-02-11T02:13:45;7.30;78.10
64062;DHT22;50308;47.438;-1.528;2023-02-11T02:16:11;7.30;78.10
64062;DHT22;50308;47.438;-1.528;2023-02-11T02:18:48;7.30;78.10
64062;DHT22;50308;47.438;-1.528;2023-02-11T02:21:26;7.40;77.90
64062;DHT22;50308;47.438;-1.528;2023-02-11T02:36:47;7.40;78.30
64062;DHT22;50308;47.438;-1.528;2023-02-11T02:39:19;7.40;78.20
64062;DHT22;50308;47.438;-1.528;2023-02-11T02:41:46;7.40;78.20
64062;DHT22;50308;47.438;-1.528;2023-02-11T02:44:12;7.40;78.20
64062;DHT22;50308;47.438;-1.528;2023-02-11T02:46:38;7.40;78.00
64062;DHT22;50308;47.438;-1.528;2023-02-11T02:49:05;7.40;78.50
64062;DHT22;50308;47.438;-1.528;2023-02-11T02:56:53;7.40;78.50
64062;DHT22;50308;47.438;-1.528;2023-02-11T03:05:05;7.30;78.80
64062;DHT22;50308;47.438;-1.528;2023-02-11T03:12:24;7.40;78.40
64062;DHT22;50308;47.438;-1.528;2023-02-11T03:14:51;7.30;78.40
64062;DHT22;50308;47.438;-1.528;2023-02-11T03:17:16;7.30;78.20
64062;DHT22;50308;47.438;-1.528;2023-02-11T03:19:43;7.30;78.30
64062;DHT22;50308;47.438;-1.528;2023-02-11T03:22:16;7.30;78.10
64062;DHT22;50308;47.438;-1.528;2023-02-11T03:24:42;7.30;78.10
64062;DHT22;50308;47.438;-1.528;2023-02-11T03:27:16;7.20;78.30
64062;DHT22;50308;47.438;-1.528;2023-02-11T03:34:49;7.00;77.80
64062;DHT22;50308;47.438;-1.528;2023-02-11T03:39:46;6.90;78.00
64062;DHT22;50308;47.438;-1.528;2023-02-11T03:42:14;6.90;78.30
64062;DHT22;50308;47.438;-1.528;2023-02-11T03:44:43;6.80;78.00
64062;DHT22;50308;47.438;-1.528;2023-02-11T03:47:10;6.70;78.00
64062;DHT22;50308;47.438;-1.528;2023-02-11T03:49:37;6.70;79.30
64062;DHT22;50308;47.438;-1.528;2023-02-11T03:52:04;6.60;77.90
64062;DHT22;50308;47.438;-1.528;2023-02-11T03:54:31;6.60;78.70
64062;DHT22;50308;47.438;-1.528;2023-02-11T03:56:57;6.70;78.30
64062;DHT22;50308;47.438;-1.528;2023-02-11T03:59:24;6.80;78.00
64062;DHT22;50308;47.438;-1.528;2023-02-11T04:01:49;6.80;77.40
64062;DHT22;50308;47.438;-1.528;2023-02-11T04:04:15;6.70;77.40
64062;DHT22;50308;47.438;-1.528;2023-02-11T04:06:41;6.70;77.40
64062;DHT22;50308;47.438;-1.528;2023-02-11T04:09:07;6.70;77.30
64062;DHT22;50308;47.438;-1.528;2023-02-11T04:11:33;6.60;77.40
64062;DHT22;50308;47.438;-1.528;2023-02-11T04:13:58;6.60;77.40
64062;DHT22;50308;47.438;-1.528;2023-02-11T04:16:24;6.60;78.50
64062;DHT22;50308;47.438;-1.528;2023-02-11T04:18:49;6.60;77.60
64062;DHT22;50308;47.438;-1.528;2023-02-11T04:21:15;6.50;77.60
64062;DHT22;50308;47.438;-1.528;2023-02-11T04:23:41;6.40;77.40
64062;DHT22;50308;47.438;-1.528;2023-02-11T04:26:06;6.40;77.40
64062;DHT22;50308;47.438;-1.528;2023-02-11T04:28:32;6.30;77.50
64062;DHT22;50308;47.438;-1.528;2023-02-11T04:30:57;6.30;77.50
64062;DHT22;50308;47.438;-1.528;2023-02-11T04:33:23;6.30;77.60
64062;DHT22;50308;47.438;-1.528;2023-02-11T04:35:49;6.20;77.40
64062;DHT22;50308;47.438;-1.528;2023-02-11T04:38:14;6.20;77.30
64062;DHT22;50308;47.438;-1.528;2023-02-11T04:40:40;6.20;77.40
64062;DHT22;50308;47.438;-1.528;2023-02-11T04:43:05;6.20;77.30
64062;DHT22;50308;47.438;-1.528;2023-02-11T04:45:31;6.30;77.30
64062;DHT22;50308;47.438;-1.528;2023-02-11T04:47:57;6.30;77.00
64062;DHT22;50308;47.438;-1.528;2023-02-11T04:50:22;6.20;77.30
64062;DHT22;50308;47.438;-1.528;2023-02-11T04:52:48;6.30;77.50
64062;DHT22;50308;47.438;-1.528;2023-02-11T04:55:13;6.20;77.00
64062;DHT22;50308;47.438;-1.528;2023-02-11T04:57:39;6.20;77.20
64062;DHT22;50308;47.438;-1.528;2023-02-11T05:00:05;6.20;77.00
64062;DHT22;50308;47.438;-1.528;2023-02-11T05:02:31;6.10;76.90
64062;DHT22;50308;47.438;-1.528;2023-02-11T05:04:56;6.10;77.00
64062;DHT22;50308;47.438;-1.528;2023-02-11T05:07:22;6.10;77.10
64062;DHT22;50308;47.438;-1.528;2023-02-11T05:09:47;6.10;76.80
64062;DHT22;50308;47.438;-1.528;2023-02-11T05:12:13;6.10;77.10
64062;DHT22;50308;47.438;-1.528;2023-02-11T05:14:39;6.10;77.10
64062;DHT22;50308;47.438;-1.528;2023-02-11T05:17:04;6.10;77.10
64062;DHT22;50308;47.438;-1.528;2023-02-11T05:19:30;6.00;77.00
64062;DHT22;50308;47.438;-1.528;2023-02-11T05:21:56;6.00;77.00
64062;DHT22;50308;47.438;-1.528;2023-02-11T05:24:22;5.90;76.80
64062;DHT22;50308;47.438;-1.528;2023-02-11T05:26:47;5.90;77.00
64062;DHT22;50308;47.438;-1.528;2023-02-11T05:29:13;6.00;77.00
64062;DHT22;50308;47.438;-1.528;2023-02-11T05:31:38;6.00;76.90
64062;DHT22;50308;47.438;-1.528;2023-02-11T05:34:04;6.00;76.80
64062;DHT22;50308;47.438;-1.528;2023-02-11T05:36:30;5.90;76.80
64062;DHT22;50308;47.438;-1.528;2023-02-11T05:38:56;5.90;76.70
64062;DHT22;50308;47.438;-1.528;2023-02-11T05:41:21;5.90;76.70
64062;DHT22;50308;47.438;-1.528;2023-02-11T05:43:49;5.90;76.70
64062;DHT22;50308;47.438;-1.528;2023-02-11T05:46:15;5.90;76.90
64062;DHT22;50308;47.438;-1.528;2023-02-11T05:48:41;5.80;76.80
64062;DHT22;50308;47.438;-1.528;2023-02-11T05:51:07;5.90;76.80
64062;DHT22;50308;47.438;-1.528;2023-02-11T05:53:32;5.90;76.60
64062;DHT22;50308;47.438;-1.528;2023-02-11T05:55:58;5.80;76.60
64062;DHT22;50308;47.438;-1.528;2023-02-11T05:58:23;5.80;76.60
64062;DHT22;50308;47.438;-1.528;2023-02-11T06:00:49;5.80;76.70
64062;DHT22;50308;47.438;-1.528;2023-02-11T06:03:14;5.80;76.70
64062;DHT22;50308;47.438;-1.528;2023-02-11T06:05:41;5.80;76.50
64062;DHT22;50308;47.438;-1.528;2023-02-11T06:08:06;5.80;76.70
64062;DHT22;50308;47.438;-1.528;2023-02-11T06:10:32;5.80;76.60
64062;DHT22;50308;47.438;-1.528;2023-02-11T06:12:57;5.80;76.50
64062;DHT22;50308;47.438;-1.528;2023-02-11T06:15:23;5.80;76.50
64062;DHT22;50308;47.438;-1.528;2023-02-11T06:17:49;5.80;76.60
64062;DHT22;50308;47.438;-1.528;2023-02-11T06:20:14;5.70;76.40
64062;DHT22;50308;47.438;-1.528;2023-02-11T06:22:40;5.70;76.40
64062;DHT22;50308;47.438;-1.528;2023-02-11T06:25:05;5.70;76.20
64062;DHT22;50308;47.438;-1.528;2023-02-11T06:27:31;5.80;76.60
64062;DHT22;50308;47.438;-1.528;2023-02-11T06:29:56;5.80;76.50
64062;DHT22;50308;47.438;-1.528;2023-02-11T06:32:22;5.80;76.20
64062;DHT22;50308;47.438;-1.528;2023-02-11T06:34:48;5.70;76.30
64062;DHT22;50308;47.438;-1.528;2023-02-11T06:37:13;5.70;76.10
64062;DHT22;50308;47.438;-1.528;2023-02-11T06:39:39;5.70;76.60
64062;DHT22;50308;47.438;-1.528;2023-02-11T06:42:04;5.70;76.60
64062;DHT22;50308;47.438;-1.528;2023-02-11T06:44:30;5.60;76.30
64062;DHT22;50308;47.438;-1.528;2023-02-11T06:46:56;5.60;76.20
64062;DHT22;50308;47.438;-1.528;2023-02-11T06:49:21;5.60;76.20
64062;DHT22;50308;47.438;-1.528;2023-02-11T06:51:47;5.60;76.10
64062;DHT22;50308;47.438;-1.528;2023-02-11T06:54:13;5.60;76.20
64062;DHT22;50308;47.438;-1.528;2023-02-11T06:56:39;5.60;76.20
64062;DHT22;50308;47.438;-1.528;2023-02-11T06:59:05;5.60;76.20
64062;DHT22;50308;47.438;-1.528;2023-02-11T07:01:31;5.60;76.10
64062;DHT22;50308;47.438;-1.528;2023-02-11T07:03:56;5.60;76.30
64062;DHT22;50308;47.438;-1.528;2023-02-11T07:06:23;5.60;76.30
64062;DHT22;50308;47.438;-1.528;2023-02-11T07:08:49;5.50;76.20
64062;DHT22;50308;47.438;-1.528;2023-02-11T07:11:17;5.40;76.20
64062;DHT22;50308;47.438;-1.528;2023-02-11T07:13:43;5.40;76.30
64062;DHT22;50308;47.438;-1.528;2023-02-11T07:16:10;5.40;76.50
64062;DHT22;50308;47.438;-1.528;2023-02-11T07:18:36;5.50;76.50
64062;DHT22;50308;47.438;-1.528;2023-02-11T07:21:05;5.60;76.40
64062;DHT22;50308;47.438;-1.528;2023-02-11T07:23:31;5.60;76.20
64062;DHT22;50308;47.438;-1.528;2023-02-11T07:25:57;5.50;76.20
64062;DHT22;50308;47.438;-1.528;2023-02-11T07:28:22;5.60;76.30
64062;DHT22;50308;47.438;-1.528;2023-02-11T07:30:48;5.60;76.30
64062;DHT22;50308;47.438;-1.528;2023-02-11T07:33:13;5.60;76.50
64062;DHT22;50308;47.438;-1.528;2023-02-11T07:35:39;5.60;76.10
64062;DHT22;50308;47.438;-1.528;2023-02-11T07:38:04;5.50;76.30
64062;DHT22;50308;47.438;-1.528;2023-02-11T07:40:30;5.50;76.50
64062;DHT22;50308;47.438;-1.528;2023-02-11T07:42:56;5.60;76.50
64062;DHT22;50308;47.438;-1.528;2023-02-11T07:45:21;5.60;76.40
64062;DHT22;50308;47.438;-1.528;2023-02-11T07:47:47;5.60;76.60
64062;DHT22;50308;47.438;-1.528;2023-02-11T07:50:12;5.60;76.50
64062;DHT22;50308;47.438;-1.528;2023-02-11T07:52:38;5.60;76.40
64062;DHT22;50308;47.438;-1.528;2023-02-11T07:55:04;5.60;76.60
64062;DHT22;50308;47.438;-1.528;2023-02-11T07:57:29;5.70;76.70
64062;DHT22;50308;47.438;-1.528;2023-02-11T07:59:55;5.60;76.50
64062;DHT22;50308;47.438;-1.528;2023-02-11T08:02:20;5.60;76.60
64062;DHT22;50308;47.438;-1.528;2023-02-11T08:04:46;5.70;76.80
64062;DHT22;50308;47.438;-1.528;2023-02-11T08:07:15;5.70;76.80
64062;DHT22;50308;47.438;-1.528;2023-02-11T08:09:41;5.70;76.90
64062;DHT22;50308;47.438;-1.528;2023-02-11T08:12:06;5.70;76.70
64062;DHT22;50308;47.438;-1.528;2023-02-11T08:14:32;5.70;76.80
64062;DHT22;50308;47.438;-1.528;2023-02-11T08:16:57;5.70;76.90
64062;DHT22;50308;47.438;-1.528;2023-02-11T08:19:23;5.80;77.10
64062;DHT22;50308;47.438;-1.528;2023-02-11T08:21:49;5.80;77.00
64062;DHT22;50308;47.438;-1.528;2023-02-11T08:24:14;5.80;77.00
64062;DHT22;50308;47.438;-1.528;2023-02-11T08:26:40;5.90;78.20
64062;DHT22;50308;47.438;-1.528;2023-02-11T08:29:07;5.90;77.30
64062;DHT22;50308;47.438;-1.528;2023-02-11T08:31:34;5.90;77.20
64062;DHT22;50308;47.438;-1.528;2023-02-11T08:34:00;5.90;77.20
64062;DHT22;50308;47.438;-1.528;2023-02-11T08:36:27;6.00;77.40
64062;DHT22;50308;47.438;-1.528;2023-02-11T08:38:57;6.00;77.40
64062;DHT22;50308;47.438;-1.528;2023-02-11T08:41:32;6.00;77.50
64062;DHT22;50308;47.438;-1.528;2023-02-11T08:43:58;6.00;77.30
64062;DHT22;50308;47.438;-1.528;2023-02-11T08:46:23;6.20;77.50
64062;DHT22;50308;47.438;-1.528;2023-02-11T08:48:49;6.20;77.40
64062;DHT22;50308;47.438;-1.528;2023-02-11T08:51:16;6.30;77.30
64062;DHT22;50308;47.438;-1.528;2023-02-11T08:53:42;6.40;77.40
64062;DHT22;50308;47.438;-1.528;2023-02-11T08:56:08;6.40;76.70
64062;DHT22;50308;47.438;-1.528;2023-02-11T08:58:34;6.50;77.40
64062;DHT22;50308;47.438;-1.528;2023-02-11T09:01:07;6.60;77.40
64062;DHT22;50308;47.438;-1.528;2023-02-11T09:03:33;6.60;77.40
64062;DHT22;50308;47.438;-1.528;2023-02-11T09:05:58;6.60;77.50
64062;DHT22;50308;47.438;-1.528;2023-02-11T09:08:24;6.70;77.40
64062;DHT22;50308;47.438;-1.528;2023-02-11T09:10:49;6.70;77.20
64062;DHT22;50308;47.438;-1.528;2023-02-11T09:13:15;6.80;77.20
64062;DHT22;50308;47.438;-1.528;2023-02-11T09:15:43;6.90;77.30
64062;DHT22;50308;47.438;-1.528;2023-02-11T09:18:09;6.90;77.20
64062;DHT22;50308;47.438;-1.528;2023-02-11T09:20:34;7.00;76.90
64062;DHT22;50308;47.438;-1.528;2023-02-11T09:23:00;7.00;77.00
64062;DHT22;50308;47.438;-1.528;2023-02-11T09:25:25;7.10;77.10
64062;DHT22;50308;47.438;-1.528;2023-02-11T09:27:51;7.10;77.40
64062;DHT22;50308;47.438;-1.528;2023-02-11T09:30:18;7.00;77.30
64062;DHT22;50308;47.438;-1.528;2023-02-11T09:32:43;7.10;77.40
64062;DHT22;50308;47.438;-1.528;2023-02-11T09:35:09;7.10;77.40
64062;DHT22;50308;47.438;-1.528;2023-02-11T09:37:34;7.10;77.40
64062;DHT22;50308;47.438;-1.528;2023-02-11T09:40:00;7.10;77.50
64062;DHT22;50308;47.438;-1.528;2023-02-11T09:42:45;7.20;77.80
64062;DHT22;50308;47.438;-1.528;2023-02-11T09:45:14;7.20;77.50
64062;DHT22;50308;47.438;-1.528;2023-02-11T09:47:46;7.40;77.30
64062;DHT22;50308;47.438;-1.528;2023-02-11T09:50:13;7.40;77.20
64062;DHT22;50308;47.438;-1.528;2023-02-11T09:52:42;7.60;76.90
64062;DHT22;50308;47.438;-1.528;2023-02-11T09:55:23;7.70;77.20
64062;DHT22;50308;47.438;-1.528;2023-02-11T09:57:49;7.70;77.00
64062;DHT22;50308;47.438;-1.528;2023-02-11T10:02:55;7.80;77.70
64062;DHT22;50308;47.438;-1.528;2023-02-11T10:05:38;7.80;77.80
64062;DHT22;50308;47.438;-1.528;2023-02-11T10:08:07;7.90;78.00
64062;DHT22;50308;47.438;-1.528;2023-02-11T10:13:13;7.90;77.90
64062;DHT22;50308;47.438;-1.528;2023-02-11T10:18:23;8.00;78.00
64062;DHT22;50308;47.438;-1.528;2023-02-11T10:23:37;8.10;77.70
64062;DHT22;50308;47.438;-1.528;2023-02-11T10:26:08;8.10;77.60
64062;DHT22;50308;47.438;-1.528;2023-02-11T10:28:36;8.20;77.40
64062;DHT22;50308;47.438;-1.528;2023-02-11T10:36:00;8.30;77.10
64062;DHT22;50308;47.438;-1.528;2023-02-11T10:38:26;8.30;77.10
64062;DHT22;50308;47.438;-1.528;2023-02-11T10:40:52;8.40;76.80
64062;DHT22;50308;47.438;-1.528;2023-02-11T10:43:18;8.40;77.00
64062;DHT22;50308;47.438;-1.528;2023-02-11T10:45:49;8.40;77.30
64062;DHT22;50308;47.438;-1.528;2023-02-11T10:51:06;8.50;77.40
64062;DHT22;50308;47.438;-1.528;2023-02-11T10:53:33;8.50;76.80
64062;DHT22;50308;47.438;-1.528;2023-02-11T10:56:00;8.50;76.70
64062;DHT22;50308;47.438;-1.528;2023-02-11T10:58:29;8.50;77.00
64062;DHT22;50308;47.438;-1.528;2023-02-11T11:00:56;8.50;77.20
64062;DHT22;50308;47.438;-1.528;2023-02-11T11:03:23;8.60;76.80
64062;DHT22;50308;47.438;-1.528;2023-02-11T11:06:01;8.60;76.80
64062;DHT22;50308;47.438;-1.528;2023-02-11T11:11:04;8.60;76.00
64062;DHT22;50308;47.438;-1.528;2023-02-11T11:18:37;8.70;77.10
64062;DHT22;50308;47.438;-1.528;2023-02-11T11:21:21;8.70;76.70
64062;DHT22;50308;47.438;-1.528;2023-02-11T11:23:48;8.70;76.10
64062;DHT22;50308;47.438;-1.528;2023-02-11T11:26:15;8.80;76.80
64062;DHT22;50308;47.438;-1.528;2023-02-11T11:28:52;8.80;76.60
64062;DHT22;50308;47.438;-1.528;2023-02-11T11:31:20;8.80;76.20
64062;DHT22;50308;47.438;-1.528;2023-02-11T11:33:46;8.80;75.60
64062;DHT22;50308;47.438;-1.528;2023-02-11T11:36:13;8.80;75.70
64062;DHT22;50308;47.438;-1.528;2023-02-11T11:38:44;8.80;76.00
64062;DHT22;50308;47.438;-1.528;2023-02-11T11:43:38;8.90;76.20
64062;DHT22;50308;47.438;-1.528;2023-02-11T11:46:04;8.90;75.50
64062;DHT22;50308;47.438;-1.528;2023-02-11T11:48:33;8.90;75.00
64062;DHT22;50308;47.438;-1.528;2023-02-11T11:51:03;8.90;75.50
64062;DHT22;50308;47.438;-1.528;2023-02-11T11:56:21;9.00;74.90
64062;DHT22;50308;47.438;-1.528;2023-02-11T11:58:47;9.00;75.10
64062;DHT22;50308;47.438;-1.528;2023-02-11T12:11:16;9.00;75.10
64062;DHT22;50308;47.438;-1.528;2023-02-11T12:26:21;9.10;75.10
64062;DHT22;50308;47.438;-1.528;2023-02-11T12:39:54;9.20;75.10
64062;DHT22;50308;47.438;-1.528;2023-02-11T12:48:12;9.30;75.20
64062;DHT22;50308;47.438;-1.528;2023-02-11T12:56:05;9.30;75.20
64062;DHT22;50308;47.438;-1.528;2023-02-11T12:58:35;9.30;75.20
64062;DHT22;50308;47.438;-1.528;2023-02-11T13:01:03;9.30;75.20
64062;DHT22;50308;47.438;-1.528;2023-02-11T13:06:00;9.30;75.00
64062;DHT22;50308;47.438;-1.528;2023-02-11T13:08:29;9.30;75.20
64062;DHT22;50308;47.438;-1.528;2023-02-11T13:11:39;9.30;75.20
64062;DHT22;50308;47.438;-1.528;2023-02-11T13:13:50;9.30;75.20
64062;DHT22;50308;47.438;-1.528;2023-02-11T13:18:54;9.40;75.50
64062;DHT22;50308;47.438;-1.528;2023-02-11T13:21:32;9.40;75.30
64062;DHT22;50308;47.438;-1.528;2023-02-11T13:26:37;9.40;75.30
64062;DHT22;50308;47.438;-1.528;2023-02-11T13:31:57;9.40;75.20
64062;DHT22;50308;47.438;-1.528;2023-02-11T13:35:15;9.50;75.30
64062;DHT22;50308;47.438;-1.528;2023-02-11T13:39:54;9.40;75.30
64062;DHT22;50308;47.438;-1.528;2023-02-11T13:42:20;9.40;75.30
64062;DHT22;50308;47.438;-1.528;2023-02-11T13:44:46;9.50;75.40
64062;DHT22;50308;47.438;-1.528;2023-02-11T13:47:21;9.50;74.90
64062;DHT22;50308;47.438;-1.528;2023-02-11T13:49:49;9.50;74.90
64062;DHT22;50308;47.438;-1.528;2023-02-11T13:54:45;9.50;75.40
64062;DHT22;50308;47.438;-1.528;2023-02-11T13:57:20;9.50;75.30
64062;DHT22;50308;47.438;-1.528;2023-02-11T14:10:51;9.60;75.40
64062;DHT22;50308;47.438;-1.528;2023-02-11T14:13:24;9.60;75.10
64062;DHT22;50308;47.438;-1.528;2023-02-11T14:16:13;9.60;75.40
64062;DHT22;50308;47.438;-1.528;2023-02-11T14:26:32;9.60;75.30
64062;DHT22;50308;47.438;-1.528;2023-02-11T14:29:01;9.60;75.40
64062;DHT22;50308;47.438;-1.528;2023-02-11T14:42:13;9.70;75.30
64062;DHT22;50308;47.438;-1.528;2023-02-11T14:44:40;9.70;75.40
64062;DHT22;50308;47.438;-1.528;2023-02-11T14:47:05;9.70;75.30
64062;DHT22;50308;47.438;-1.528;2023-02-11T14:49:35;9.70;75.10
64062;DHT22;50308;47.438;-1.528;2023-02-11T14:52:07;9.70;75.20
64062;DHT22;50308;47.438;-1.528;2023-02-11T14:54:39;9.70;75.40
64062;DHT22;50308;47.438;-1.528;2023-02-11T14:57:15;9.70;75.50
64062;DHT22;50308;47.438;-1.528;2023-02-11T14:59:54;9.70;75.40
64062;DHT22;50308;47.438;-1.528;2023-02-11T15:02:23;9.70;75.60
64062;DHT22;50308;47.438;-1.528;2023-02-11T15:04:50;9.70;75.40
64062;DHT22;50308;47.438;-1.528;2023-02-11T15:07:16;9.70;75.40
64062;DHT22;50308;47.438;-1.528;2023-02-11T15:09:46;9.80;75.50
64062;DHT22;50308;47.438;-1.528;2023-02-11T15:12:22;9.80;75.50
64062;DHT22;50308;47.438;-1.528;2023-02-11T15:14:49;9.80;75.50
64062;DHT22;50308;47.438;-1.528;2023-02-11T15:17:16;9.80;75.50
64062;DHT22;50308;47.438;-1.528;2023-02-11T15:19:44;9.80;75.50
64062;DHT22;50308;47.438;-1.528;2023-02-11T15:22:19;9.80;75.50
64062;DHT22;50308;47.438;-1.528;2023-02-11T15:25:00;9.80;75.50
64062;DHT22;50308;47.438;-1.528;2023-02-11T15:27:26;9.80;75.50
64062;DHT22;50308;47.438;-1.528;2023-02-11T15:29:52;9.80;75.40
64062;DHT22;50308;47.438;-1.528;2023-02-11T15:32:18;9.80;75.50
64062;DHT22;50308;47.438;-1.528;2023-02-11T15:34:46;9.80;75.50
64062;DHT22;50308;47.438;-1.528;2023-02-11T15:37:18;9.80;75.50
64062;DHT22;50308;47.438;-1.528;2023-02-11T15:39:44;9.80;75.20
64062;DHT22;50308;47.438;-1.528;2023-02-11T15:44:45;9.80;75.50
64062;DHT22;50308;47.438;-1.528;2023-02-11T15:47:11;9.90;75.50
64062;DHT22;50308;47.438;-1.528;2023-02-11T15:49:38;9.90;75.30
64062;DHT22;50308;47.438;-1.528;2023-02-11T15:52:07;9.90;75.50
64062;DHT22;50308;47.438;-1.528;2023-02-11T15:54:33;9.90;75.50
64062;DHT22;50308;47.438;-1.528;2023-02-11T15:57:02;9.90;75.50
64062;DHT22;50308;47.438;-1.528;2023-02-11T16:01:57;9.90;75.30
64062;DHT22;50308;47.438;-1.528;2023-02-11T16:04:29;9.90;75.50
64062;DHT22;50308;47.438;-1.528;2023-02-11T16:06:55;9.90;75.30
64062;DHT22;50308;47.438;-1.528;2023-02-11T16:09:32;9.90;75.60
64062;DHT22;50308;47.438;-1.528;2023-02-11T16:12:02;9.90;75.40
64062;DHT22;50308;47.438;-1.528;2023-02-11T16:17:01;9.90;75.30
64062;DHT22;50308;47.438;-1.528;2023-02-11T16:19:28;9.90;75.40
64062;DHT22;50308;47.438;-1.528;2023-02-11T16:21:55;9.90;75.50
64062;DHT22;50308;47.438;-1.528;2023-02-11T16:24:23;10.00;75.60
64062;DHT22;50308;47.438;-1.528;2023-02-11T16:26:52;10.00;75.60
64062;DHT22;50308;47.438;-1.528;2023-02-11T16:29:22;9.90;75.40
64062;DHT22;50308;47.438;-1.528;2023-02-11T16:31:48;10.00;75.60
64062;DHT22;50308;47.438;-1.528;2023-02-11T16:34:18;10.00;75.20
64062;DHT22;50308;47.438;-1.528;2023-02-11T16:36:44;10.00;75.30
64062;DHT22;50308;47.438;-1.528;2023-02-11T16:39:10;10.00;75.20
64062;DHT22;50308;47.438;-1.528;2023-02-11T16:41:36;10.00;75.50
64062;DHT22;50308;47.438;-1.528;2023-02-11T16:44:01;10.00;75.20
64062;DHT22;50308;47.438;-1.528;2023-02-11T16:46:27;10.00;75.50
64062;DHT22;50308;47.438;-1.528;2023-02-11T16:48:53;10.00;75.60
64062;DHT22;50308;47.438;-1.528;2023-02-11T16:51:20;10.00;75.20
64062;DHT22;50308;47.438;-1.528;2023-02-11T16:53:45;10.00;75.40
64062;DHT22;50308;47.438;-1.528;2023-02-11T16:56:15;10.00;75.30
64062;DHT22;50308;47.438;-1.528;2023-02-11T16:58:41;10.00;75.60
64062;DHT22;50308;47.438;-1.528;2023-02-11T17:01:06;10.00;75.50
64062;DHT22;50308;47.438;-1.528;2023-02-11T17:03:32;10.00;75.50
64062;DHT22;50308;47.438;-1.528;2023-02-11T17:06:04;10.10;75.60
64062;DHT22;50308;47.438;-1.528;2023-02-11T17:08:31;10.00;75.60
64062;DHT22;50308;47.438;-1.528;2023-02-11T17:10:57;10.10;75.70
64062;DHT22;50308;47.438;-1.528;2023-02-11T17:13:22;10.00;76.50
64062;DHT22;50308;47.438;-1.528;2023-02-11T17:15:48;10.00;76.60
64062;DHT22;50308;47.438;-1.528;2023-02-11T17:18:13;10.00;77.60
64062;DHT22;50308;47.438;-1.528;2023-02-11T17:20:39;10.00;77.80
64062;DHT22;50308;47.438;-1.528;2023-02-11T17:23:05;10.00;77.90
64062;DHT22;50308;47.438;-1.528;2023-02-11T17:25:30;9.90;78.20
64062;DHT22;50308;47.438;-1.528;2023-02-11T17:27:56;9.90;77.60
64062;DHT22;50308;47.438;-1.528;2023-02-11T17:30:22;9.90;78.00
64062;DHT22;50308;47.438;-1.528;2023-02-11T17:32:49;9.90;77.40
64062;DHT22;50308;47.438;-1.528;2023-02-11T17:35:14;9.90;77.90
64062;DHT22;50308;47.438;-1.528;2023-02-11T17:37:40;9.80;78.30
64062;DHT22;50308;47.438;-1.528;2023-02-11T17:40:06;9.80;78.20
64062;DHT22;50308;47.438;-1.528;2023-02-11T17:42:32;9.80;78.30
64062;DHT22;50308;47.438;-1.528;2023-02-11T17:44:58;9.80;78.30
64062;DHT22;50308;47.438;-1.528;2023-02-11T17:47:24;9.70;78.20
64062;DHT22;50308;47.438;-1.528;2023-02-11T17:49:49;9.70;78.20
64062;DHT22;50308;47.438;-1.528;2023-02-11T17:52:15;9.70;79.00
64062;DHT22;50308;47.438;-1.528;2023-02-11T17:54:42;9.70;78.00
64062;DHT22;50308;47.438;-1.528;2023-02-11T17:57:08;9.70;77.80
64062;DHT22;50308;47.438;-1.528;2023-02-11T17:59:34;9.60;77.90
64062;DHT22;50308;47.438;-1.528;2023-02-11T18:02:00;9.60;77.90
64062;DHT22;50308;47.438;-1.528;2023-02-11T18:04:27;9.60;78.20
64062;DHT22;50308;47.438;-1.528;2023-02-11T18:06:52;9.50;78.10
64062;DHT22;50308;47.438;-1.528;2023-02-11T18:09:18;9.50;78.10
64062;DHT22;50308;47.438;-1.528;2023-02-11T18:11:44;9.60;78.20
64062;DHT22;50308;47.438;-1.528;2023-02-11T18:14:10;9.60;77.90
64062;DHT22;50308;47.438;-1.528;2023-02-11T18:16:36;9.60;77.70
64062;DHT22;50308;47.438;-1.528;2023-02-11T18:19:03;9.50;78.00